createdAt,value
2018-05-21T00:01:29.611Z,99.90
2018-05-21T00:03:57.895Z,99.90
2018-05-21T00:06:25.255Z,99.90
2018-05-21T00:08:52.712Z,99.90
2018-05-21T00:11:20.155Z,99.90
2018-05-21T00:13:48.366Z,99.90
2018-05-21T00:16:15.803Z,99.90
2018-05-21T00:18:43.257Z,99.90
2018-05-21T00:21:10.687Z,99.90
2018-05-21T00:23:38.900Z,99.90
2018-05-21T00:26:06.344Z,99.90
2018-05-21T00:28:33.792Z,99.90
2018-05-21T00:31:01.227Z,99.90
2018-05-21T00:33:29.434Z,99.90
2018-05-21T00:35:56.871Z,99.90
2018-05-21T00:38:25.084Z,99.90
2018-05-21T00:40:52.523Z,99.90
2018-05-21T00:43:19.969Z,99.90
2018-05-21T00:45:47.397Z,99.90
2018-05-21T00:48:14.843Z,99.90
2018-05-21T00:50:42.275Z,99.90
2018-05-21T00:53:09.719Z,99.90
2018-05-21T00:55:37.169Z,99.90
2018-05-21T00:58:04.595Z,99.90
2018-05-21T01:00:32.798Z,99.90
2018-05-21T01:03:00.247Z,99.90
2018-05-21T01:05:27.683Z,99.90
2018-05-21T01:07:55.887Z,99.90
2018-05-21T01:10:23.318Z,99.90
2018-05-21T01:12:51.535Z,99.90
2018-05-21T01:15:18.978Z,99.90
2018-05-21T01:17:46.412Z,99.90
2018-05-21T01:20:13.846Z,99.90
2018-05-21T01:22:42.058Z,99.90
2018-05-21T01:25:09.498Z,99.90
2018-05-21T01:27:36.935Z,99.90
2018-05-21T01:30:04.374Z,99.90
2018-05-21T01:32:31.798Z,99.90
2018-05-21T01:34:59.243Z,99.90
2018-05-21T01:37:26.682Z,99.90
2018-05-21T01:39:54.127Z,99.90
2018-05-21T01:42:22.337Z,99.90
2018-05-21T01:44:49.780Z,99.90
2018-05-21T01:47:17.215Z,99.90
2018-05-21T01:49:45.424Z,99.90
2018-05-21T01:52:12.867Z,99.90
2018-05-21T01:54:40.311Z,99.90
2018-05-21T01:57:08.512Z,99.90
2018-05-21T01:59:35.974Z,99.90
2018-05-21T02:02:03.418Z,99.90
2018-05-21T02:04:30.866Z,99.90
2018-05-21T02:06:58.315Z,99.90
2018-05-21T02:09:26.530Z,99.90
2018-05-21T02:11:53.959Z,99.90
2018-05-21T02:14:21.402Z,99.90
2018-05-21T02:16:48.843Z,99.90
2018-05-21T02:19:17.068Z,99.90
2018-05-21T02:21:44.504Z,99.90
2018-05-21T02:24:11.943Z,99.90
2018-05-21T02:26:40.163Z,99.90
2018-05-21T02:29:07.607Z,99.90
2018-05-21T02:31:35.054Z,99.90
2018-05-21T02:34:02.495Z,99.90
2018-05-21T02:36:30.700Z,99.90
2018-05-21T02:38:58.134Z,99.90
2018-05-21T02:41:25.582Z,99.90
2018-05-21T02:43:53.024Z,99.90
2018-05-21T02:46:21.229Z,99.90
2018-05-21T02:48:48.672Z,99.90
2018-05-21T02:51:16.116Z,99.90
2018-05-21T02:53:44.327Z,99.90
2018-05-21T02:56:11.771Z,99.90
2018-05-21T02:58:39.215Z,99.90
2018-05-21T03:01:06.664Z,99.90
2018-05-21T03:03:34.872Z,99.90
2018-05-21T03:06:02.319Z,99.90
2018-05-21T03:08:29.761Z,99.90
2018-05-21T03:10:57.963Z,99.90
2018-05-21T03:13:25.399Z,99.90
2018-05-21T03:15:52.842Z,99.90
2018-05-21T03:18:21.052Z,99.90
2018-05-21T03:20:48.504Z,99.90
2018-05-21T03:23:15.950Z,99.90
2018-05-21T03:25:43.412Z,99.90
2018-05-21T03:28:10.844Z,99.90
2018-05-21T03:30:39.051Z,99.90
2018-05-21T03:33:06.496Z,99.90
2018-05-21T03:35:33.934Z,99.90
2018-05-21T03:38:01.373Z,99.90
2018-05-21T03:40:28.810Z,99.90
2018-05-21T03:42:56.251Z,99.90
2018-05-21T03:45:23.693Z,99.90
2018-05-21T03:47:51.131Z,99.90
2018-05-21T03:50:18.571Z,99.90
2018-05-21T03:52:46.774Z,99.90
2018-05-21T03:55:14.214Z,99.90
2018-05-21T03:57:41.660Z,99.90
2018-05-21T04:00:21.629Z,99.90
2018-05-21T04:03:00.832Z,99.90
2018-05-21T04:05:29.057Z,99.90
2018-05-21T04:07:56.497Z,99.90
2018-05-21T04:10:23.933Z,99.90
2018-05-21T04:12:52.143Z,99.90
2018-05-21T04:15:20.394Z,99.90
2018-05-21T04:17:47.838Z,99.90
2018-05-21T04:20:16.042Z,99.90
2018-05-21T04:22:43.564Z,99.90
2018-05-21T04:25:10.916Z,99.90
2018-05-21T04:27:39.128Z,99.90
2018-05-21T04:30:06.562Z,99.90
2018-05-21T04:32:34.000Z,99.90
2018-05-21T04:35:02.208Z,99.90
2018-05-21T04:37:29.659Z,99.90
2018-05-21T04:39:57.099Z,99.90
2018-05-21T04:42:25.308Z,99.90
2018-05-21T04:44:52.739Z,99.90
2018-05-21T04:47:20.938Z,99.90
2018-05-21T04:49:48.372Z,99.90
2018-05-21T04:52:15.816Z,99.90
2018-05-21T04:54:44.025Z,99.90
2018-05-21T04:57:11.470Z,99.90
2018-05-21T04:59:38.907Z,99.90
2018-05-21T05:02:07.119Z,99.90
2018-05-21T05:04:34.610Z,99.90
2018-05-21T05:07:02.045Z,99.90
2018-05-21T05:09:29.492Z,99.90
2018-05-21T05:11:56.924Z,99.90
2018-05-21T05:14:24.367Z,99.90
2018-05-21T05:16:52.576Z,99.90
2018-05-21T05:19:20.028Z,99.90
2018-05-21T05:21:47.462Z,99.90
2018-05-21T05:24:14.899Z,99.90
2018-05-21T05:26:43.137Z,99.90
2018-05-21T05:29:10.543Z,99.90
2018-05-21T05:31:38.747Z,99.90
2018-05-21T05:34:06.192Z,99.90
2018-05-21T05:36:33.622Z,99.90
2018-05-21T05:39:01.831Z,99.90
2018-05-21T05:41:29.277Z,99.90
2018-05-21T05:43:56.716Z,99.90
2018-05-21T05:46:24.933Z,99.90
2018-05-21T05:48:52.430Z,99.90
2018-05-21T05:51:19.807Z,99.90
2018-05-21T05:53:48.019Z,99.90
2018-05-21T05:56:15.454Z,99.90
2018-05-21T05:58:42.900Z,99.90
2018-05-21T06:01:10.339Z,99.90
2018-05-21T06:03:38.561Z,99.90
2018-05-21T06:06:05.986Z,99.90
2018-05-21T06:08:34.191Z,99.90
2018-05-21T06:11:01.631Z,99.90
2018-05-21T06:13:29.063Z,99.90
2018-05-21T06:15:57.272Z,99.90
2018-05-21T06:18:24.711Z,99.90
2018-05-21T06:20:52.155Z,99.90
2018-05-21T06:23:20.374Z,99.90
2018-05-21T06:25:47.868Z,99.90
2018-05-21T06:28:15.246Z,99.90
2018-05-21T06:30:42.687Z,99.90
2018-05-21T06:33:10.890Z,99.90
2018-05-21T06:35:38.328Z,99.90
2018-05-21T06:38:06.548Z,99.90
2018-05-21T06:40:33.985Z,99.90
2018-05-21T06:43:01.411Z,99.90
2018-05-21T06:45:29.622Z,99.90
2018-05-21T06:47:57.051Z,99.90
2018-05-21T06:50:25.263Z,99.90
2018-05-21T06:52:53.477Z,99.90
2018-05-21T06:55:20.912Z,99.90
2018-05-21T06:57:48.364Z,99.90
2018-05-21T07:00:15.828Z,99.90
2018-05-21T07:02:43.258Z,99.90
2018-05-21T07:05:10.712Z,99.90
2018-05-21T07:07:38.137Z,99.90
2018-05-21T07:10:06.348Z,99.90
2018-05-21T07:12:33.784Z,99.90
2018-05-21T07:15:01.231Z,99.90
2018-05-21T07:17:29.452Z,99.90
2018-05-21T07:19:56.931Z,99.90
2018-05-21T07:22:24.365Z,99.90
2018-05-21T07:24:51.813Z,99.90
2018-05-21T07:27:19.256Z,99.90
2018-05-21T07:29:46.704Z,99.90
2018-05-21T07:32:14.134Z,99.90
2018-05-21T07:34:42.345Z,99.90
2018-05-21T07:37:09.784Z,99.90
2018-05-21T07:39:37.214Z,99.90
2018-05-21T07:42:05.448Z,99.90
2018-05-21T07:44:32.892Z,99.90
2018-05-21T07:47:00.355Z,99.90
2018-05-21T07:49:27.780Z,99.90
2018-05-21T07:51:55.986Z,99.90
2018-05-21T07:54:23.424Z,99.90
2018-05-21T07:56:50.872Z,99.90
2018-05-21T07:59:18.307Z,99.90
2018-05-21T08:01:46.513Z,99.90
2018-05-21T08:04:13.953Z,99.90
2018-05-21T08:06:42.159Z,99.90
2018-05-21T08:09:09.598Z,99.90
2018-05-21T08:11:37.040Z,99.90
2018-05-21T08:14:05.244Z,99.90
2018-05-21T08:16:32.683Z,99.90
2018-05-21T08:19:00.120Z,99.90
2018-05-21T08:21:28.323Z,99.90
2018-05-21T08:23:55.752Z,99.90
2018-05-21T08:26:23.976Z,99.90
2018-05-21T08:28:51.391Z,99.90
2018-05-21T08:31:18.827Z,99.90
2018-05-21T08:33:46.291Z,99.40
2018-05-21T08:36:13.711Z,99.70
2018-05-21T08:38:41.162Z,99.90
2018-05-21T08:41:08.607Z,98.40
2018-05-21T08:43:36.053Z,97.70
2018-05-21T08:46:03.485Z,99.90
2018-05-21T08:48:31.759Z,99.60
2018-05-21T08:50:59.151Z,99.70
2018-05-21T08:53:26.597Z,98.50
2018-05-21T08:55:54.028Z,98.60
2018-05-21T08:58:22.233Z,98.40
2018-05-21T09:00:49.659Z,98.30
2018-05-21T09:03:17.862Z,98.10
2018-05-21T09:05:45.300Z,98.10
2018-05-21T09:08:12.740Z,98.80
2018-05-21T09:10:40.940Z,98.90
2018-05-21T09:13:08.383Z,98.90
2018-05-21T09:15:35.815Z,97.80
2018-05-21T09:18:03.259Z,99.90
2018-05-21T09:20:30.784Z,96.20
2018-05-21T09:22:58.218Z,95.30
2018-05-21T09:25:25.647Z,97.90
2018-05-21T09:27:53.088Z,96.30
2018-05-21T09:30:20.519Z,97.20
2018-05-21T09:32:47.971Z,96.10
2018-05-21T09:35:15.408Z,97.30
2018-05-21T09:37:42.849Z,96.90
2018-05-21T09:40:11.054Z,95.20
2018-05-21T09:42:38.489Z,95.20
2018-05-21T09:45:05.931Z,95.80
2018-05-21T09:47:34.127Z,96.90
2018-05-21T09:50:01.732Z,96.80
2018-05-21T09:52:29.159Z,96.90
2018-05-21T09:54:56.604Z,95.80
2018-05-21T09:57:24.034Z,95.00
2018-05-21T09:59:52.245Z,94.80
2018-05-21T10:02:19.679Z,94.80
2018-05-21T10:04:47.112Z,93.30
2018-05-21T10:07:14.540Z,93.70
2018-05-21T10:09:42.751Z,91.90
2018-05-21T10:12:10.224Z,92.20
2018-05-21T10:14:37.615Z,92.80
2018-05-21T10:17:05.043Z,94.60
2018-05-21T10:19:32.560Z,95.00
2018-05-21T10:22:00.692Z,94.50
2018-05-21T10:24:28.129Z,94.50
2018-05-21T10:26:56.323Z,93.00
2018-05-21T10:29:23.846Z,93.00
2018-05-21T10:31:52.076Z,92.70
2018-05-21T10:34:19.504Z,92.70
2018-05-21T10:36:47.707Z,94.40
2018-05-21T10:39:15.151Z,94.40
2018-05-21T10:41:42.589Z,94.10
2018-05-21T10:44:10.799Z,95.10
2018-05-21T10:46:38.238Z,95.10
2018-05-21T10:49:05.674Z,92.70
2018-05-21T10:51:33.875Z,92.70
2018-05-21T10:54:01.310Z,92.70
2018-05-21T10:56:29.522Z,91.60
2018-05-21T10:58:56.959Z,91.60
2018-05-21T11:01:24.388Z,92.30
2018-05-21T11:03:51.824Z,92.00
2018-05-21T11:06:19.255Z,91.50
2018-05-21T11:08:46.706Z,91.90
2018-05-21T11:11:14.138Z,93.20
2018-05-21T11:13:41.571Z,92.20
2018-05-21T11:16:09.006Z,92.70
2018-05-21T11:18:36.439Z,92.40
2018-05-21T11:21:03.883Z,91.80
2018-05-21T11:23:31.315Z,88.40
2018-05-21T11:25:59.523Z,89.20
2018-05-21T11:28:26.981Z,89.20
2018-05-21T11:30:54.413Z,86.50
2018-05-21T11:33:22.620Z,91.80
2018-05-21T11:35:50.053Z,91.80
2018-05-21T11:38:17.479Z,90.70
2018-05-21T11:40:44.912Z,84.10
2018-05-21T11:43:12.341Z,85.40
2018-05-21T11:45:39.780Z,80.40
2018-05-21T11:48:07.204Z,83.60
2018-05-21T11:50:34.638Z,81.40
2018-05-21T11:53:02.079Z,83.00
2018-05-21T11:55:29.500Z,80.50
2018-05-21T11:57:56.926Z,81.30
2018-05-21T12:00:24.373Z,85.60
2018-05-21T12:02:51.811Z,84.70
2018-05-21T12:05:19.247Z,81.80
2018-05-21T12:07:46.729Z,81.20
2018-05-21T12:10:14.127Z,82.10
2018-05-21T12:12:42.323Z,76.40
2018-05-21T12:15:09.761Z,76.30
2018-05-21T12:17:37.956Z,77.10
2018-05-21T12:20:05.398Z,77.10
2018-05-21T12:22:33.596Z,78.80
2018-05-21T12:25:01.058Z,78.80
2018-05-21T12:27:28.491Z,84.00
2018-05-21T12:29:55.918Z,79.90
2018-05-21T12:32:23.356Z,81.60
2018-05-21T12:34:50.791Z,73.90
2018-05-21T12:37:18.241Z,73.10
2018-05-21T12:39:45.675Z,72.10
2018-05-21T12:42:13.116Z,71.30
2018-05-21T12:44:41.307Z,71.90
2018-05-21T12:47:08.744Z,71.90
2018-05-21T12:49:36.934Z,77.10
2018-05-21T12:52:04.380Z,77.20
2018-05-21T12:54:32.597Z,73.60
2018-05-21T12:57:00.023Z,73.60
2018-05-21T12:59:28.226Z,74.00
2018-05-21T13:01:55.662Z,74.10
2018-05-21T13:04:23.096Z,76.20
2018-05-21T13:06:50.537Z,73.90
2018-05-21T13:09:17.975Z,75.00
2018-05-21T13:14:26.067Z,71.60
2018-05-21T13:16:53.507Z,78.90
2018-05-21T13:19:21.709Z,71.00
2018-05-21T13:21:49.139Z,70.90
2018-05-21T13:24:17.428Z,78.00
2018-05-21T13:26:44.784Z,78.00
2018-05-21T13:29:12.210Z,73.40
2018-05-21T13:31:40.415Z,70.80
2018-05-21T13:34:07.851Z,70.70
2018-05-21T13:36:36.042Z,77.50
2018-05-21T13:39:03.488Z,77.50
2018-05-21T13:41:31.691Z,85.60
2018-05-21T13:43:59.131Z,85.90
2018-05-21T13:46:26.567Z,82.30
2018-05-21T13:48:54.773Z,87.50
2018-05-21T13:51:22.200Z,87.60
2018-05-21T13:53:50.404Z,81.30
2018-05-21T13:56:17.827Z,81.30
2018-05-21T13:58:46.072Z,86.50
2018-05-21T14:01:13.474Z,86.40
2018-05-21T14:03:40.916Z,83.80
2018-05-21T14:06:09.098Z,90.10
2018-05-21T14:08:37.308Z,89.50
2018-05-21T14:11:04.731Z,89.70
2018-05-21T14:13:32.943Z,88.40
2018-05-21T14:16:00.371Z,88.40
2018-05-21T14:18:27.812Z,89.60
2018-05-21T14:20:56.021Z,85.20
2018-05-21T14:23:23.467Z,85.20
2018-05-21T14:25:52.125Z,90.40
2018-05-21T14:28:19.647Z,90.10
2018-05-21T14:30:47.090Z,91.00
2018-05-21T14:33:14.539Z,91.80
2018-05-21T14:35:41.971Z,91.60
2018-05-21T14:38:09.415Z,93.30
2018-05-21T14:40:37.628Z,94.90
2018-05-21T14:43:05.083Z,94.90
2018-05-21T14:45:32.507Z,96.30
2018-05-21T14:48:00.736Z,97.60
2018-05-21T14:50:28.169Z,97.60
2018-05-21T14:52:55.612Z,99.90
2018-05-21T14:55:23.052Z,99.90
2018-05-21T14:57:51.250Z,99.90
2018-05-21T15:00:18.704Z,99.90
2018-05-21T15:02:46.143Z,99.90
2018-05-21T15:05:14.348Z,99.90
2018-05-21T15:07:41.780Z,99.90
2018-05-21T15:10:09.224Z,99.90
2018-05-21T15:12:37.424Z,99.90
2018-05-21T15:15:04.868Z,99.90
2018-05-21T15:17:32.304Z,99.90
2018-05-21T15:20:00.523Z,99.90
2018-05-21T15:22:27.954Z,99.90
2018-05-21T15:24:56.160Z,99.90
2018-05-21T15:27:23.627Z,99.90
2018-05-21T15:29:52.245Z,99.90
2018-05-21T15:32:19.685Z,99.90
2018-05-21T15:34:47.131Z,99.90
2018-05-21T15:37:14.555Z,99.90
2018-05-21T15:39:42.767Z,99.90
2018-05-21T15:42:10.212Z,99.90
2018-05-21T15:44:37.647Z,99.90
2018-05-21T15:47:05.083Z,99.90
2018-05-21T15:49:33.283Z,99.90
2018-05-21T15:52:00.719Z,99.90
2018-05-21T15:54:28.925Z,99.90
2018-05-21T15:56:56.356Z,99.90
2018-05-21T15:59:24.556Z,98.80
2018-05-21T16:01:51.980Z,98.80
2018-05-21T16:04:20.187Z,99.40
2018-05-21T16:06:47.639Z,99.20
2018-05-21T16:09:15.116Z,97.50
2018-05-21T16:11:43.275Z,96.80
2018-05-21T16:14:10.708Z,96.80
2018-05-21T16:16:38.915Z,98.80
2018-05-21T16:19:06.340Z,98.80
2018-05-21T16:21:34.540Z,97.40
2018-05-21T16:24:01.972Z,97.30
2018-05-21T16:26:30.171Z,96.60
2018-05-21T16:28:57.595Z,96.60
2018-05-21T16:31:25.800Z,96.40
2018-05-21T16:33:53.252Z,96.40
2018-05-21T16:36:20.675Z,96.60
2018-05-21T16:38:48.119Z,96.50
2018-05-21T16:41:15.560Z,94.80
2018-05-21T16:43:42.991Z,94.40
2018-05-21T16:46:10.419Z,97.10
2018-05-21T16:48:38.610Z,96.80
2018-05-21T16:51:06.040Z,96.70
2018-05-21T16:53:33.495Z,96.40
2018-05-21T16:56:00.935Z,94.00
2018-05-21T16:58:28.368Z,94.00
2018-05-21T17:00:55.804Z,92.80
2018-05-21T17:03:23.227Z,94.20
2018-05-21T17:05:50.680Z,93.50
2018-05-21T17:08:18.103Z,94.10
2018-05-21T17:10:45.532Z,93.60
2018-05-21T17:13:12.970Z,94.00
2018-05-21T17:15:41.164Z,95.20
2018-05-21T17:18:08.606Z,95.20
2018-05-21T17:20:36.800Z,94.40
2018-05-21T17:23:04.238Z,94.40
2018-05-21T17:25:32.429Z,96.90
2018-05-21T17:27:59.875Z,96.90
2018-05-21T17:30:27.308Z,96.50
2018-05-21T17:32:54.748Z,97.70
2018-05-21T17:35:22.223Z,97.50
2018-05-21T17:37:49.649Z,96.30
2018-05-21T17:40:17.082Z,96.80
2018-05-21T17:42:44.523Z,98.30
2018-05-21T17:45:11.959Z,99.80
2018-05-21T17:47:40.194Z,99.90
2018-05-21T17:50:07.634Z,99.90
2018-05-21T17:52:35.084Z,99.90
2018-05-21T17:55:02.539Z,99.90
2018-05-21T17:57:29.983Z,99.80
2018-05-21T17:59:57.418Z,99.90
2018-05-21T18:02:25.626Z,99.90
2018-05-21T18:04:53.083Z,99.90
2018-05-21T18:07:20.529Z,99.90
2018-05-21T18:09:47.959Z,99.90
2018-05-21T18:12:16.175Z,99.90
2018-05-21T18:14:43.615Z,99.90
2018-05-21T18:17:11.046Z,99.90
2018-05-21T18:19:39.250Z,99.90
2018-05-21T18:22:06.696Z,99.90
2018-05-21T18:24:34.136Z,99.90
2018-05-21T18:27:02.335Z,99.90
2018-05-21T18:29:29.776Z,99.90
2018-05-21T18:31:57.995Z,99.90
2018-05-21T18:34:25.436Z,99.90
2018-05-21T18:36:52.879Z,99.90
2018-05-21T18:39:20.326Z,99.90
2018-05-21T18:41:48.519Z,98.10
2018-05-21T18:44:15.964Z,98.00
2018-05-21T18:46:43.394Z,97.50
2018-05-21T18:49:11.599Z,97.40
2018-05-21T18:51:39.033Z,97.40
2018-05-21T18:54:07.231Z,99.60
2018-05-21T18:56:34.665Z,99.70
2018-05-21T18:59:02.873Z,99.00
2018-05-21T19:01:30.299Z,99.00
2018-05-21T19:03:58.505Z,99.80
2018-05-21T19:06:25.931Z,99.80
2018-05-21T19:08:54.133Z,99.90
2018-05-21T19:11:21.574Z,99.90
2018-05-21T19:13:49.018Z,99.90
2018-05-21T19:16:17.225Z,99.90
2018-05-21T19:18:44.666Z,99.90
2018-05-21T19:21:12.112Z,99.90
2018-05-21T19:23:39.543Z,99.90
2018-05-21T19:26:07.012Z,99.90
2018-05-21T19:28:35.236Z,99.90
2018-05-21T19:31:02.778Z,99.90
2018-05-21T19:33:30.212Z,99.90
2018-05-21T19:35:58.518Z,99.90
2018-05-21T19:38:25.932Z,99.90
2018-05-21T19:40:54.135Z,99.90
2018-05-21T19:43:21.571Z,99.90
2018-05-21T19:45:49.780Z,99.90
2018-05-21T19:48:17.199Z,99.90
2018-05-21T19:50:45.399Z,99.90
2018-05-21T19:53:12.827Z,99.90
2018-05-21T19:55:41.034Z,99.90
2018-05-21T19:58:08.463Z,99.90
2018-05-21T20:00:36.666Z,99.90
2018-05-21T20:03:04.091Z,99.90
2018-05-21T20:05:32.301Z,99.90
2018-05-21T20:07:59.736Z,99.90
2018-05-21T20:10:27.170Z,99.90
2018-05-21T20:12:55.367Z,99.90
2018-05-21T20:15:22.802Z,99.90
2018-05-21T20:17:50.229Z,99.90
2018-05-21T20:23:13.229Z,99.90
2018-05-21T20:25:40.654Z,99.90
2018-05-21T20:28:08.091Z,99.90
2018-05-21T20:30:35.528Z,99.90
2018-05-21T20:33:02.953Z,99.90
2018-05-21T20:35:31.155Z,99.90
2018-05-21T20:37:58.587Z,99.90
2018-05-21T20:40:26.792Z,99.90
2018-05-21T20:42:54.214Z,99.90
2018-05-21T20:45:21.746Z,99.90
2018-05-21T20:47:49.087Z,99.90
2018-05-21T20:50:16.519Z,99.90
2018-05-21T20:52:43.939Z,99.90
2018-05-21T20:55:11.374Z,99.90
2018-05-21T20:57:38.807Z,99.90
2018-05-21T21:00:06.238Z,99.90
2018-05-21T21:02:33.671Z,99.90
2018-05-21T21:05:01.871Z,99.90
2018-05-21T21:07:29.318Z,99.90
2018-05-21T21:09:57.520Z,99.90
2018-05-21T21:12:24.954Z,99.90
2018-05-21T21:14:52.383Z,99.90
2018-05-21T21:17:19.819Z,99.90
2018-05-21T21:19:47.250Z,99.90
2018-05-21T21:22:14.685Z,99.90
2018-05-21T21:24:42.111Z,99.90
2018-05-21T21:27:09.539Z,99.90
2018-05-21T21:29:36.971Z,99.90
2018-05-21T21:32:04.406Z,99.90
2018-05-21T21:34:31.827Z,99.90
2018-05-21T21:36:59.270Z,99.90
2018-05-21T21:39:26.694Z,99.90
2018-05-21T21:41:54.135Z,99.90
2018-05-21T21:44:21.557Z,99.90
2018-05-21T21:46:48.990Z,99.90
2018-05-21T21:49:16.431Z,99.90
2018-05-21T21:51:43.883Z,99.90
2018-05-21T21:54:11.317Z,99.90
2018-05-21T21:56:38.742Z,99.90
2018-05-21T21:59:06.176Z,99.90
2018-05-21T22:01:33.616Z,99.90
2018-05-21T22:04:01.043Z,99.90
2018-05-21T22:06:28.476Z,99.90
2018-05-21T22:08:56.681Z,99.90
2018-05-21T22:11:24.102Z,99.90
2018-05-21T22:13:52.316Z,99.90
2018-05-21T22:16:19.743Z,99.90
2018-05-21T22:18:47.946Z,99.90
2018-05-21T22:21:15.376Z,99.90
2018-05-21T22:23:43.590Z,99.90
2018-05-21T22:26:11.026Z,99.90
2018-05-21T22:28:38.460Z,99.90
2018-05-21T22:31:06.672Z,99.90
2018-05-21T22:33:34.142Z,99.90
2018-05-21T22:36:01.585Z,99.90
2018-05-21T22:38:29.017Z,99.90
2018-05-21T22:40:57.207Z,99.90
2018-05-21T22:43:24.647Z,99.90
2018-05-21T22:45:52.837Z,99.90
2018-05-21T22:48:20.268Z,99.90
2018-05-21T22:50:48.465Z,99.90
2018-05-21T22:53:15.902Z,99.90
2018-05-21T22:55:44.099Z,99.90
2018-05-21T22:58:11.532Z,99.90
2018-05-21T23:00:39.724Z,99.90
2018-05-21T23:03:07.165Z,99.90
2018-05-21T23:05:35.355Z,99.90
2018-05-21T23:08:02.796Z,99.90
2018-05-21T23:10:30.986Z,99.90
2018-05-21T23:12:58.439Z,99.90
2018-05-21T23:15:26.637Z,99.90
2018-05-21T23:17:54.076Z,99.90
2018-05-21T23:20:22.284Z,99.90
2018-05-21T23:22:49.699Z,99.90
2018-05-21T23:25:17.906Z,99.90
2018-05-21T23:27:45.348Z,99.90
2018-05-21T23:30:13.558Z,99.90
2018-05-21T23:32:40.987Z,99.90
2018-05-21T23:35:08.419Z,99.90
2018-05-21T23:37:36.619Z,99.90
2018-05-21T23:40:04.056Z,99.90
2018-05-21T23:42:32.251Z,99.90
2018-05-21T23:44:59.688Z,99.90
2018-05-21T23:47:27.889Z,99.90
2018-05-21T23:49:55.331Z,99.90
2018-05-21T23:52:22.775Z,99.90
2018-05-21T23:54:50.275Z,99.90
2018-05-21T23:57:17.743Z,99.90
2018-05-21T23:59:45.187Z,99.90
